Nearby METAR Reports

 

K1A5 - Macon/Franklin, North Carolina, USA
Distance from station: WSW 16mi, 25km
Updated: Thu, 05-Dec-2019 9:35am EST
Clear
Clear
 Wind from calm
Wind: Calm
Temperature: 34°F , 1°C
Dew Point: 28°F , -2°C
Humidity: 81%
Barometer: 30.13 inHg , 1020.3 hPa
Clouds: Clear
Visibility: 10 miles , 16 km
2019/12/05 14:35 K1A5 051435Z AUTO 00000KT 10SM CLR 01/M02 A3013 RMK AO2 T00091024
KAVL - Asheville, North Carolina, USA
Distance from station: ENE 36mi, 59km
Updated: Thu, 05-Dec-2019 8:54am EST
Clear
Clear
 Wind from N
Wind: N 13 mph , 20 km/h
Temperature: 43°F , 6°C
Wind Chill: 36°F , 2°C
Dew Point: 25°F , -4°C
Humidity: 49%
Barometer: 30.07 inHg , 1018.3 hPa
Clouds: Clear
Visibility: 10 miles , 16 km
2019/12/05 13:54 KAVL 051354Z 35011KT 10SM CLR 06/M04 A3007 RMK AO2 SLP179 T00561039
 
KRHP - Andrews, North Carolina, USA
Distance from station: WSW 40mi, 64km
Updated: Thu, 05-Dec-2019 9:15am EST
Clear
Clear
 Wind from SW
Wind: SW 6 mph , 9 km/h
Temperature: 34°F , 1°C
Wind Chill: 29°F , -2°C
Dew Point: 30°F , -1°C
Humidity: 87%
Barometer: 30.11 inHg , 1019.6 hPa
Clouds: Clear
Visibility: 10 miles , 16 km
2019/12/05 14:15 KRHP 051415Z AUTO 23005KT 10SM CLR 01/M01 A3011 RMK AO2 T00071011
KLQK - Pickens, South Carolina, USA
Distance from station: SE 42mi, 68km
Updated: Thu, 05-Dec-2019 9:15am EST
Clear
Clear
 Wind from SSW
Wind: SSW 3 mph , 6 km/h
Temperature: 52°F , 11°C
Dew Point: 28°F , -2°C
Humidity: 41%
Barometer: 30.06 inHg , 1017.9 hPa
Clouds: Clear
Visibility: 10 miles , 16 km
2019/12/05 14:15 KLQK 051415Z AUTO 20003KT 10SM CLR 11/M02 A3006 RMK AO2 T01091023
 
KCEU - Clemson, South Carolina, USA
Distance from station: SSE 46mi, 75km
Updated: Thu, 05-Dec-2019 8:54am EST
Clear
Clear
 Wind from W
Wind: W 7 mph , 11 km/h
Temperature: 48°F , 9°C
Wind Chill: 45°F , 7°C
Dew Point: 25°F , -4°C
Humidity: 40%
Barometer: 30.07 inHg , 1018.3 hPa
Clouds: Clear
Visibility: 10 miles , 16 km
2019/12/05 13:54 KCEU 051354Z AUTO 26006KT 10SM CLR 09/M04 A3007 RMK AO2 SLP181 T00941039
KTOC - Toccoa, Georgia, USA
Distance from station: S 49mi, 79km
Updated: Thu, 05-Dec-2019 9:15am EST
Clear
Clear
 Wind from calm
Wind: Calm
Temperature: 50°F , 10°C
Dew Point: 28°F , -2°C
Humidity: 43%
Barometer: 30.08 inHg , 1018.6 hPa
Clouds: Clear
Visibility: 10 miles , 16 km
2019/12/05 14:15 KTOC 051415Z AUTO 00000KT 10SM CLR 10/M02 A3008 RMK AO2 T00991024